Time;durP1;ratioP1;P1;durP2;ratioP2;P2;SDS_P1;SDS_P2;PMS_P1;PMS_P2;Temp;Humidity;BMP_temperature;BMP_pressure;BME280_temperature;BME280_humidity;BME280_pressure;Samples;Min_cycle;Max_cycle;Signal;HPM_P1;HPM_P2
2022/04/03 00:00:13;;;;;;;;;;;2.80;1.00;;;;;;10393452;28;85541;-57
2022/04/03 00:05:14;;;;;;;;;;;3.00;1.00;;;;;;10391635;28;85866;-56
2022/04/03 00:10:15;;;;;;;;;;;2.80;1.00;;;;;;10409629;28;84915;-55
2022/04/03 00:15:16;;;;;;;;;;;2.60;1.00;;;;;;10391305;28;86158;-52
2022/04/03 00:20:17;;;;;;;;;;;2.50;1.00;;;;;;10409231;28;84984;-57
2022/04/03 00:25:18;;;;;;;;;;;2.60;1.00;;;;;;10409370;28;84000;-55
2022/04/03 00:30:19;;;;;;;;;;;2.60;1.00;;;;;;10409953;28;84241;-54
2022/04/03 00:35:20;;;;;;;;;;;2.50;1.00;;;;;;10412563;28;84160;-52
2022/04/03 00:40:26;;;;;;;;;;;2.40;1.00;;;;;;10397184;28;85084;-56
2022/04/03 00:45:27;;;;;;;;;;;2.40;1.00;;;;;;10400079;28;84275;-52
2022/04/03 00:50:27;;;;;;;;;;;2.30;1.00;;;;;;10416960;28;84165;-53
2022/04/03 00:55:28;;;;;;;;;;;2.20;1.00;;;;;;10417016;28;84935;-55
2022/04/03 01:00:29;;;;;;;;;;;2.10;9.30;;;;;;10398092;28;84887;-56
2022/04/03 01:05:30;;;;;;;;;;;2.10;99.90;;;;;;10417205;28;84324;-54
2022/04/03 01:10:30;;;;;;;;;;;2.00;60.60;;;;;;10374253;22;1206944;-49
2022/04/03 01:15:32;;;;;;;;;;;1.90;99.90;;;;;;10372151;28;84701;-49
2022/04/03 01:20:35;;;;;;;;;;;1.80;99.90;;;;;;10373424;28;84276;-53
2022/04/03 01:25:35;;;;;;;;;;;1.80;99.90;;;;;;10372695;28;85218;-50
2022/04/03 01:30:36;;;;;;;;;;;1.60;99.90;;;;;;10372599;28;85021;-51
2022/04/03 01:35:36;;;;;;;;;;;1.60;99.90;;;;;;10372271;28;84131;-53
2022/04/03 01:40:37;;;;;;;;;;;1.60;99.90;;;;;;10373229;28;84081;-56
2022/04/03 01:45:38;;;;;;;;;;;1.60;99.90;;;;;;10373033;28;84766;-50
2022/04/03 01:50:39;;;;;;;;;;;1.60;99.90;;;;;;10373536;28;84299;-53
2022/04/03 01:55:40;;;;;;;;;;;1.50;99.90;;;;;;10372662;28;84181;-51
2022/04/03 02:00:41;;;;;;;;;;;1.50;99.90;;;;;;10372181;28;84958;-51
2022/04/03 02:05:41;;;;;;;;;;;1.40;99.90;;;;;;10372046;28;84618;-54
2022/04/03 02:10:42;;;;;;;;;;;1.40;99.90;;;;;;10371917;28;84872;-49
2022/04/03 02:15:43;;;;;;;;;;;1.30;99.90;;;;;;10352368;28;85912;-48
2022/04/03 02:20:43;;;;;;;;;;;1.30;99.90;;;;;;10370784;28;85041;-49
2022/04/03 02:25:45;;;;;;;;;;;1.40;99.90;;;;;;10370000;28;84786;-49
2022/04/03 02:30:46;;;;;;;;;;;1.40;99.90;;;;;;10367981;28;84030;-51
2022/04/03 02:35:46;;;;;;;;;;;1.30;99.90;;;;;;10372071;28;84948;-50
2022/04/03 02:40:47;;;;;;;;;;;1.40;99.90;;;;;;10372917;28;85113;-51
2022/04/03 02:45:47;;;;;;;;;;;1.40;99.90;;;;;;10337817;28;85745;-50
2022/04/03 02:50:48;;;;;;;;;;;1.40;99.90;;;;;;10330426;28;84256;-50
2022/04/03 02:55:49;;;;;;;;;;;1.40;99.90;;;;;;10329707;28;84950;-51
2022/04/03 03:00:49;;;;;;;;;;;1.50;99.90;;;;;;10329107;28;84317;-52
2022/04/03 03:05:50;;;;;;;;;;;1.50;99.90;;;;;;10310953;28;84218;-50
2022/04/03 03:10:50;;;;;;;;;;;1.40;99.90;;;;;;10326938;28;84141;-48
2022/04/03 03:15:52;;;;;;;;;;;1.50;59.90;;;;;;10328763;28;84843;-49
2022/04/03 03:20:53;;;;;;;;;;;1.60;1.00;;;;;;10327540;28;84171;-49
2022/04/03 03:25:53;;;;;;;;;;;1.60;1.00;;;;;;10291531;28;85907;-49
2022/04/03 03:30:54;;;;;;;;;;;1.60;1.00;;;;;;10294315;28;86357;-51
2022/04/03 03:35:55;;;;;;;;;;;1.50;1.00;;;;;;10328401;28;85030;-49
2022/04/03 03:40:55;;;;;;;;;;;1.50;1.00;;;;;;10328162;28;84784;-52
2022/04/03 03:45:59;;;;;;;;;;;1.40;99.90;;;;;;10327383;28;84888;-46
2022/04/03 03:50:59;;;;;;;;;;;1.30;99.90;;;;;;10327567;28;84298;-54
2022/04/03 03:56:00;;;;;;;;;;;1.30;99.90;;;;;;10327082;28;84140;-51
2022/04/03 04:01:01;;;;;;;;;;;1.30;99.90;;;;;;10326985;28;84878;-50
2022/04/03 04:06:01;;;;;;;;;;;1.20;99.90;;;;;;10326437;28;84075;-48
2022/04/03 04:11:02;;;;;;;;;;;1.20;99.90;;;;;;10326431;28;84845;-49
2022/04/03 04:16:02;;;;;;;;;;;1.10;99.90;;;;;;10330172;28;84769;-52
2022/04/03 04:21:03;;;;;;;;;;;1.00;99.90;;;;;;10334238;28;84192;-53
2022/04/03 04:26:04;;;;;;;;;;;0.90;99.90;;;;;;10331739;28;84921;-50
2022/04/03 04:31:04;;;;;;;;;;;0.80;99.90;;;;;;10334127;28;85244;-49
2022/04/03 04:36:06;;;;;;;;;;;0.60;99.90;;;;;;10332725;28;84160;-50
2022/04/03 04:41:06;;;;;;;;;;;0.70;99.90;;;;;;10333925;28;84804;-49
2022/04/03 04:46:07;;;;;;;;;;;0.70;99.90;;;;;;10332711;28;84961;-49
2022/04/03 04:51:09;;;;;;;;;;;0.70;99.90;;;;;;10332846;28;85159;-50
2022/04/03 04:56:12;;;;;;;;;;;0.80;99.90;;;;;;10314242;28;87063;-48
2022/04/03 05:01:12;;;;;;;;;;;0.80;99.90;;;;;;10332316;28;84881;-51
2022/04/03 05:06:15;;;;;;;;;;;0.90;99.90;;;;;;10331844;28;85002;-49
2022/04/03 05:11:16;;;;;;;;;;;0.90;99.90;;;;;;10331194;28;84049;-51
2022/04/03 05:16:17;;;;;;;;;;;0.90;99.90;;;;;;10330176;28;85947;-49
2022/04/03 05:21:17;;;;;;;;;;;1.00;99.90;;;;;;10331640;28;84825;-50
2022/04/03 05:26:18;;;;;;;;;;;1.00;99.90;;;;;;10329158;28;84970;-51
2022/04/03 05:31:18;;;;;;;;;;;1.00;99.90;;;;;;10331499;28;84212;-55
2022/04/03 05:36:19;;;;;;;;;;;0.90;99.90;;;;;;10331145;28;84936;-52
2022/04/03 05:41:19;;;;;;;;;;;1.00;99.90;;;;;;10330071;28;84051;-50
2022/04/03 05:46:20;;;;;;;;;;;1.10;99.90;;;;;;10330305;28;84941;-50
2022/04/03 05:51:20;;;;;;;;;;;1.10;29.30;;;;;;10329379;28;84966;-49
2022/04/03 05:56:27;;;;;;;;;;;1.20;36.00;;;;;;10312662;28;86033;-49
2022/04/03 06:01:27;;;;;;;;;;;1.20;1.00;;;;;;10331023;28;84923;-49
2022/04/03 06:06:28;;;;;;;;;;;1.30;1.00;;;;;;10329614;28;84994;-51
2022/04/03 06:11:28;;;;;;;;;;;1.40;1.00;;;;;;10330255;28;84534;-51
2022/04/03 06:16:29;;;;;;;;;;;1.50;1.00;;;;;;10329466;28;85005;-54
2022/04/03 06:21:29;;;;;;;;;;;1.60;1.00;;;;;;10329805;28;84119;-52
2022/04/03 06:26:30;;;;;;;;;;;1.90;1.00;;;;;;10328188;28;84647;-50
2022/04/03 06:31:30;;;;;;;;;;;2.30;1.00;;;;;;10329460;28;84224;-50
2022/04/03 06:36:31;;;;;;;;;;;2.70;1.00;;;;;;10328064;28;84844;-51
2022/04/03 06:41:33;;;;;;;;;;;2.80;1.00;;;;;;10329769;28;84102;-51
2022/04/03 06:46:34;;;;;;;;;;;2.90;41.70;;;;;;10311434;28;84325;-51
2022/04/03 06:51:35;;;;;;;;;;;3.10;42.20;;;;;;10329232;28;84005;-53
2022/04/03 06:56:35;;;;;;;;;;;3.70;1.00;;;;;;10328387;28;84192;-51
2022/04/03 07:01:36;;;;;;;;;;;4.40;1.00;;;;;;10329176;28;84777;-52
2022/04/03 07:06:36;;;;;;;;;;;4.70;1.00;;;;;;10328351;28;84059;-56
2022/04/03 07:11:37;;;;;;;;;;;4.90;1.00;;;;;;10371283;22;85194;-53
2022/04/03 07:16:37;;;;;;;;;;;4.90;1.00;;;;;;10391535;28;86970;-51
2022/04/03 07:21:38;;;;;;;;;;;4.80;1.00;;;;;;10408617;28;85921;-52
2022/04/03 07:26:38;;;;;;;;;;;4.60;1.00;;;;;;10408471;28;84134;-55
2022/04/03 07:31:39;;;;;;;;;;;4.70;99.90;;;;;;10409697;28;84951;-55
2022/04/03 07:36:40;;;;;;;;;;;4.60;99.90;;;;;;10409912;28;84921;-56
2022/04/03 07:41:40;;;;;;;;;;;4.60;1.00;;;;;;10392772;28;85843;-56
2022/04/03 07:46:41;;;;;;;;;;;4.90;99.90;;;;;;10393272;28;86455;-52
2022/04/03 07:51:42;;;;;;;;;;;5.00;99.90;;;;;;10412011;28;84873;-56
2022/04/03 07:56:42;;;;;;;;;;;5.10;1.00;;;;;;10392744;28;84109;-56
2022/04/03 08:01:43;;;;;;;;;;;5.60;1.00;;;;;;10412804;28;84092;-54
2022/04/03 08:06:46;;;;;;;;;;;6.40;1.00;;;;;;10395907;28;84964;-55
2022/04/03 08:11:47;;;;;;;;;;;6.80;47.10;;;;;;10395427;28;84806;-55
2022/04/03 08:16:48;;;;;;;;;;;7.20;1.00;;;;;;10411084;28;84880;-53
2022/04/03 08:21:48;;;;;;;;;;;7.50;1.00;;;;;;10392652;28;86901;-54
2022/04/03 08:26:49;;;;;;;;;;;7.40;1.00;;;;;;10408950;28;86372;-56
2022/04/03 08:31:50;;;;;;;;;;;7.20;1.00;;;;;;10410249;28;84117;-58
2022/04/03 08:36:51;;;;;;;;;;;7.20;1.00;;;;;;10392254;28;84116;-55
2022/04/03 08:41:52;;;;;;;;;;;6.30;1.00;;;;;;10410497;28;84884;-55
2022/04/03 08:46:53;;;;;;;;;;;5.80;1.00;;;;;;10409437;28;84087;-56
2022/04/03 08:51:53;;;;;;;;;;;5.50;99.90;;;;;;10375318;28;84953;-57
2022/04/03 08:56:54;;;;;;;;;;;5.20;1.00;;;;;;10409336;28;84011;-56
2022/04/03 09:01:55;;;;;;;;;;;4.70;99.90;;;;;;10414890;28;84068;-56
2022/04/03 09:06:56;;;;;;;;;;;4.20;1.00;;;;;;10416512;28;84302;-54
2022/04/03 09:12:10;;;;;;;;;;;4.00;1.00;;;;;;10398142;28;84810;-54
2022/04/03 09:17:11;;;;;;;;;;;3.90;1.00;;;;;;10416630;28;85405;-52
2022/04/03 09:22:11;;;;;;;;;;;4.20;1.00;;;;;;10416739;28;84140;-55
2022/04/03 09:27:12;;;;;;;;;;;4.50;1.00;;;;;;10395780;28;84096;-55
2022/04/03 09:32:15;;;;;;;;;;;4.70;1.00;;;;;;10416466;28;84636;-53
2022/04/03 09:37:15;;;;;;;;;;;4.80;1.00;;;;;;10415165;28;84018;-55
2022/04/03 09:42:17;;;;;;;;;;;5.80;1.00;;;;;;10397577;28;86223;-55
2022/04/03 09:47:20;;;;;;;;;;;8.00;1.00;;;;;;10415598;28;85031;-55
2022/04/03 09:52:33;;;;;;;;;;;9.60;99.90;;;;;;10415859;28;84781;-57
2022/04/03 09:57:33;;;;;;;;;;;10.00;1.00;;;;;;10416732;28;84714;-57
2022/04/03 10:02:34;;;;;;;;;;;10.20;1.00;;;;;;10416068;28;83994;-54
2022/04/03 10:07:36;;;;;;;;;;;9.90;1.00;;;;;;10414972;28;85063;-56
2022/04/03 10:12:38;;;;;;;;;;;10.70;99.90;;;;;;10413665;28;84225;-58
2022/04/03 10:17:38;;;;;;;;;;;10.50;1.00;;;;;;10414444;28;84859;-56
2022/04/03 10:22:39;;;;;;;;;;;9.20;99.90;;;;;;10380093;28;87160;-56
2022/04/03 10:27:42;;;;;;;;;;;8.20;99.90;;;;;;10395537;28;84787;-55
2022/04/03 10:32:56;;;;;;;;;;;8.00;64.20;;;;;;10415436;28;84143;-61
2022/04/03 10:38:01;;;;;;;;;;;7.90;99.90;;;;;;10395942;28;85971;-55
2022/04/03 10:43:03;;;;;;;;;;;7.70;1.00;;;;;;10414482;28;84998;-55
2022/04/03 10:48:19;;;;;;;;;;;7.80;99.90;;;;;;10413168;28;84779;-53
2022/04/03 10:53:24;;;;;;;;;;;9.10;99.90;;;;;;10413543;28;84231;-56
2022/04/03 10:58:36;;;;;;;;;;;10.00;99.90;;;;;;10412741;28;84750;-51
2022/04/03 11:03:38;;;;;;;;;;;11.00;50.40;;;;;;10413964;28;84997;-52
2022/04/03 11:08:43;;;;;;;;;;;11.30;1.00;;;;;;10412691;28;84032;-54
2022/04/03 11:13:44;;;;;;;;;;;11.40;1.00;;;;;;10412704;28;84191;-52
2022/04/03 11:18:47;;;;;;;;;;;10.70;99.90;;;;;;10412031;28;84250;-51
2022/04/03 11:23:51;;;;;;;;;;;11.10;99.90;;;;;;10412147;28;85049;-51
2022/04/03 11:28:51;;;;;;;;;;;10.90;99.90;;;;;;10411953;28;84110;-56
2022/04/03 11:33:52;;;;;;;;;;;10.90;1.00;;;;;;10395656;28;86757;-55
2022/04/03 11:38:53;;;;;;;;;;;11.60;1.00;;;;;;10413561;28;84124;-57
2022/04/03 11:43:57;;;;;;;;;;;11.20;1.00;;;;;;10414246;28;84365;-52
2022/04/03 11:48:57;;;;;;;;;;;10.60;1.00;;;;;;10395046;28;84288;-52
2022/04/03 11:53:59;;;;;;;;;;;10.20;1.00;;;;;;10413570;28;84146;-56
2022/04/03 11:59:00;;;;;;;;;;;9.90;1.00;;;;;;10411629;28;84672;-53
2022/04/03 12:04:13;;;;;;;;;;;10.40;1.00;;;;;;10411996;28;84108;-58
2022/04/03 12:09:14;;;;;;;;;;;10.60;1.00;;;;;;10410603;28;86232;-56
2022/04/03 12:14:26;;;;;;;;;;;10.20;1.00;;;;;;10411626;28;84279;-57
2022/04/03 12:19:33;;;;;;;;;;;9.10;1.00;;;;;;10410950;28;84303;-56
2022/04/03 12:24:35;;;;;;;;;;;7.90;1.00;;;;;;10411666;28;84613;-55
2022/04/03 12:29:35;;;;;;;;;;;7.50;1.00;;;;;;10408921;28;84249;-57
2022/04/03 12:34:37;;;;;;;;;;;7.40;1.00;;;;;;10412151;28;84661;-56
2022/04/03 12:39:38;;;;;;;;;;;7.50;1.00;;;;;;10400075;28;86776;-56
2022/04/03 12:44:57;;;;;;;;;;;7.80;1.00;;;;;;10418411;28;84226;-55
2022/04/03 12:50:06;;;;;;;;;;;7.80;99.90;;;;;;10417355;28;84926;-57
2022/04/03 12:55:08;;;;;;;;;;;8.10;1.00;;;;;;10417537;28;84403;-56
2022/04/03 13:00:18;;;;;;;;;;;8.20;1.00;;;;;;10416011;28;85142;-56
2022/04/03 13:05:19;;;;;;;;;;;8.30;99.90;;;;;;10416446;28;84810;-58
2022/04/03 13:10:19;;;;;;;;;;;8.30;1.00;;;;;;10415255;28;84903;-57
2022/04/03 13:15:21;;;;;;;;;;;8.50;1.00;;;;;;10389254;22;84374;-50
2022/04/03 13:20:22;;;;;;;;;;;9.10;1.00;;;;;;10374326;28;84033;-52
2022/04/03 13:25:22;;;;;;;;;;;9.30;99.90;;;;;;10372554;28;84887;-52
2022/04/03 13:30:23;;;;;;;;;;;10.00;1.00;;;;;;10375240;28;86654;-52
2022/04/03 13:35:23;;;;;;;;;;;10.90;99.90;;;;;;10374178;28;84156;-48
2022/04/03 13:40:24;;;;;;;;;;;11.20;99.90;;;;;;10374112;28;84393;-49
2022/04/03 13:45:56;;;;;;;;;;;12.30;1.00;;;;;;10371264;28;86666;-50
2022/04/03 13:50:45;;;;;;;;;;;13.40;1.00;;;;;;10373000;28;84840;-48
2022/04/03 13:55:46;;;;;;;;;;;13.10;1.00;;;;;;10371726;28;84756;-49
2022/04/03 14:00:47;;;;;;;;;;;12.30;1.00;;;;;;10374052;28;84916;-51
2022/04/03 14:05:48;;;;;;;;;;;11.90;1.00;;;;;;10373887;28;84829;-49
2022/04/03 14:10:50;;;;;;;;;;;12.50;1.00;;;;;;10374561;28;84173;-50
2022/04/03 14:15:51;;;;;;;;;;;12.10;1.00;;;;;;10372696;28;84104;-53
2022/04/03 14:20:53;;;;;;;;;;;11.00;1.00;;;;;;10374263;28;85092;-48
2022/04/03 14:25:54;;;;;;;;;;;9.30;99.90;;;;;;10372068;28;85290;-49
2022/04/03 14:30:55;;;;;;;;;;;8.70;1.00;;;;;;10372583;28;84937;-50
2022/04/03 14:35:58;;;;;;;;;;;8.80;1.00;;;;;;10372196;28;84335;-50
2022/04/03 14:40:59;;;;;;;;;;;9.80;1.00;;;;;;10371586;28;85962;-50
2022/04/03 14:46:01;;;;;;;;;;;10.70;1.00;;;;;;10371831;28;85664;-50
2022/04/03 14:51:01;;;;;;;;;;;10.90;1.00;;;;;;10372784;28;84183;-50
2022/04/03 14:56:02;;;;;;;;;;;10.60;1.00;;;;;;10371429;28;85182;-52
2022/04/03 15:01:02;;;;;;;;;;;11.00;1.00;;;;;;10371731;28;84948;-49
2022/04/03 15:06:03;;;;;;;;;;;10.80;1.00;;;;;;10371677;28;84391;-50
2022/04/03 15:11:03;;;;;;;;;;;10.40;99.90;;;;;;10370206;28;84102;-50
2022/04/03 15:16:06;;;;;;;;;;;9.90;1.00;;;;;;10371517;28;85485;-49
2022/04/03 15:21:07;;;;;;;;;;;9.50;1.00;;;;;;10371935;28;84732;-49
2022/04/03 15:26:08;;;;;;;;;;;9.10;99.90;;;;;;10369797;28;84893;-51
2022/04/03 15:31:12;;;;;;;;;;;8.70;99.90;;;;;;10371748;28;84962;-48
2022/04/03 15:36:13;;;;;;;;;;;8.30;99.90;;;;;;10369732;28;84815;-50
2022/04/03 15:41:13;;;;;;;;;;;8.30;1.00;;;;;;10369567;28;85095;-55
2022/04/03 15:46:14;;;;;;;;;;;8.50;99.90;;;;;;10370064;28;84283;-52
2022/04/03 15:51:21;;;;;;;;;;;8.50;99.90;;;;;;10369382;28;84036;-52
2022/04/03 15:56:22;;;;;;;;;;;8.40;1.00;;;;;;10370089;28;84930;-49
2022/04/03 16:01:23;;;;;;;;;;;8.10;1.00;;;;;;10370394;28;84332;-49
2022/04/03 16:06:24;;;;;;;;;;;8.20;1.00;;;;;;10370023;28;84422;-49
2022/04/03 16:11:24;;;;;;;;;;;8.00;1.00;;;;;;10366442;28;85886;-48
2022/04/03 16:16:25;;;;;;;;;;;8.00;1.00;;;;;;10367805;28;85011;-50
2022/04/03 16:21:25;;;;;;;;;;;8.10;99.90;;;;;;10369167;28;84199;-51
2022/04/03 16:26:26;;;;;;;;;;;8.00;99.90;;;;;;10368073;28;85446;-50
2022/04/03 16:31:27;;;;;;;;;;;7.80;1.00;;;;;;10368924;28;84896;-50
2022/04/03 16:36:28;;;;;;;;;;;7.80;1.00;;;;;;10366853;28;85011;-50
2022/04/03 16:41:30;;;;;;;;;;;7.70;1.00;;;;;;10369188;28;84144;-47
2022/04/03 16:46:30;;;;;;;;;;;7.80;1.00;;;;;;10377038;28;84933;-50
2022/04/03 16:51:32;;;;;;;;;;;7.80;1.00;;;;;;10410381;28;84985;-56
2022/04/03 16:56:32;;;;;;;;;;;7.80;1.00;;;;;;10408107;28;84870;-50
2022/04/03 17:01:33;;;;;;;;;;;7.80;1.00;;;;;;10368201;28;84128;-51
2022/04/03 17:06:34;;;;;;;;;;;7.60;1.00;;;;;;10384322;28;84231;-54
2022/04/03 17:11:35;;;;;;;;;;;7.40;99.90;;;;;;10369401;28;84250;-51
2022/04/03 17:16:35;;;;;;;;;;;7.40;99.90;;;;;;10370287;28;84498;-51
2022/04/03 17:21:36;;;;;;;;;;;7.30;99.90;;;;;;10387977;28;84212;-53
2022/04/03 17:26:37;;;;;;;;;;;7.30;99.90;;;;;;10395587;28;84190;-53
2022/04/03 17:31:40;;;;;;;;;;;7.10;99.90;;;;;;10410584;28;84666;-54
2022/04/03 17:36:41;;;;;;;;;;;7.00;99.90;;;;;;10417043;28;85000;-56
2022/04/03 17:41:42;;;;;;;;;;;6.90;1.00;;;;;;10417685;28;84288;-58
2022/04/03 17:46:42;;;;;;;;;;;6.90;1.00;;;;;;10402170;28;85369;-56
2022/04/03 17:51:43;;;;;;;;;;;7.00;1.00;;;;;;10377446;28;85215;-52
2022/04/03 17:56:44;;;;;;;;;;;6.90;1.00;;;;;;10388998;28;84942;-55
2022/04/03 18:01:45;;;;;;;;;;;6.60;1.00;;;;;;10385964;28;84983;-58
2022/04/03 18:06:45;;;;;;;;;;;6.50;1.00;;;;;;10372441;28;84860;-56
2022/04/03 18:11:46;;;;;;;;;;;6.60;1.00;;;;;;10370192;28;89593;-50
2022/04/03 18:16:47;;;;;;;;;;;6.60;1.00;;;;;;10386614;28;84669;-50
2022/04/03 18:21:47;;;;;;;;;;;6.70;1.00;;;;;;10397203;28;84698;-52
2022/04/03 18:26:48;;;;;;;;;;;6.60;1.00;;;;;;10396484;28;84692;-51
2022/04/03 18:31:49;;;;;;;;;;;6.70;1.00;;;;;;10411285;28;84877;-49
2022/04/03 18:36:49;;;;;;;;;;;6.60;1.00;;;;;;10402743;28;84881;-51
2022/04/03 18:41:50;;;;;;;;;;;6.50;1.00;;;;;;10414502;28;84222;-50
2022/04/03 18:46:51;;;;;;;;;;;6.50;1.00;;;;;;10411680;28;85697;-52
2022/04/03 18:51:51;;;;;;;;;;;6.50;1.00;;;;;;10396271;28;85922;-49
2022/04/03 18:56:55;;;;;;;;;;;6.50;1.00;;;;;;10401646;28;84774;-53
2022/04/03 19:01:56;;;;;;;;;;;6.50;1.00;;;;;;10390351;28;85432;-51
2022/04/03 19:06:56;;;;;;;;;;;6.50;1.00;;;;;;10371062;28;84842;-53
2022/04/03 19:11:59;;;;;;;;;;;6.40;1.00;;;;;;10390275;22;84441;-51
2022/04/03 19:17:02;;;;;;;;;;;6.20;1.00;;;;;;10412064;28;84792;-55
2022/04/03 19:22:03;;;;;;;;;;;6.20;1.00;;;;;;10378143;28;84757;-51
2022/04/03 19:27:04;;;;;;;;;;;6.20;1.00;;;;;;10334067;28;84718;-49
2022/04/03 19:32:07;;;;;;;;;;;6.00;1.00;;;;;;10369413;28;84938;-55
2022/04/03 19:37:08;;;;;;;;;;;5.90;1.00;;;;;;10368863;28;84839;-55
2022/04/03 19:42:08;;;;;;;;;;;5.90;1.00;;;;;;10370379;28;84034;-56
2022/04/03 19:47:09;;;;;;;;;;;5.90;1.00;;;;;;10368180;28;85230;-51
2022/04/03 19:52:09;;;;;;;;;;;5.70;1.00;;;;;;10402903;28;84783;-51
2022/04/03 19:57:10;;;;;;;;;;;5.60;1.00;;;;;;10369921;28;87579;-51
2022/04/03 20:02:11;;;;;;;;;;;5.60;1.00;;;;;;10334399;28;86729;-46
2022/04/03 20:07:12;;;;;;;;;;;5.50;1.00;;;;;;10368324;28;84060;-49
2022/04/03 20:12:12;;;;;;;;;;;5.30;1.00;;;;;;10368120;28;84192;-51
2022/04/03 20:17:13;;;;;;;;;;;5.30;1.00;;;;;;10367459;28;86481;-50
2022/04/03 20:22:13;;;;;;;;;;;5.30;1.00;;;;;;10379151;28;84135;-57
2022/04/03 20:27:14;;;;;;;;;;;5.10;1.00;;;;;;10401079;28;85064;-52
2022/04/03 20:32:14;;;;;;;;;;;5.10;1.00;;;;;;10369988;28;85272;-53
2022/04/03 20:37:15;;;;;;;;;;;5.10;1.00;;;;;;10375331;28;84848;-50
2022/04/03 20:42:16;;;;;;;;;;;5.00;1.00;;;;;;10392254;28;84152;-54
2022/04/03 20:47:20;;;;;;;;;;;4.90;1.00;;;;;;10326296;28;87101;-57
2022/04/03 20:52:21;;;;;;;;;;;4.80;1.00;;;;;;10353121;28;86912;-54
2022/04/03 20:57:21;;;;;;;;;;;4.80;1.00;;;;;;10370350;28;84784;-55
2022/04/03 21:02:22;;;;;;;;;;;4.70;1.00;;;;;;10374521;28;85246;-54
2022/04/03 21:07:22;;;;;;;;;;;4.70;1.00;;;;;;10348726;28;84727;-55
2022/04/03 21:12:23;;;;;;;;;;;4.70;1.00;;;;;;10365646;28;85511;-53
2022/04/03 21:17:23;;;;;;;;;;;4.60;1.00;;;;;;10371511;28;84193;-52
2022/04/03 21:22:24;;;;;;;;;;;4.60;1.00;;;;;;10373448;28;85094;-52
2022/04/03 21:27:24;;;;;;;;;;;4.50;5.10;;;;;;10372817;28;84867;-56
2022/04/03 21:32:26;;;;;;;;;;;4.40;25.00;;;;;;10373468;28;84526;-55
2022/04/03 21:37:26;;;;;;;;;;;4.30;81.20;;;;;;10372507;28;85101;-54
2022/04/03 21:42:27;;;;;;;;;;;4.30;72.30;;;;;;10373285;28;84104;-52
2022/04/03 21:47:27;;;;;;;;;;;4.30;71.20;;;;;;10372728;28;84935;-55
2022/04/03 21:52:29;;;;;;;;;;;4.30;81.00;;;;;;10354781;28;86101;-54
2022/04/03 21:57:29;;;;;;;;;;;4.20;90.90;;;;;;10372075;28;84259;-52
2022/04/03 22:02:30;;;;;;;;;;;4.20;99.20;;;;;;10372284;28;84835;-47
2022/04/03 22:07:31;;;;;;;;;;;4.20;92.90;;;;;;10371153;28;84766;-55
2022/04/03 22:12:31;;;;;;;;;;;4.20;84.00;;;;;;10371857;28;84847;-51
2022/04/03 22:17:32;;;;;;;;;;;4.10;79.40;;;;;;10372482;28;84267;-55
2022/04/03 22:22:32;;;;;;;;;;;4.00;92.70;;;;;;10354592;28;84859;-52
2022/04/03 22:27:33;;;;;;;;;;;4.00;95.50;;;;;;10337032;28;85928;-50
2022/04/03 22:32:33;;;;;;;;;;;3.90;99.90;;;;;;10372067;28;84673;-51
2022/04/03 22:37:34;;;;;;;;;;;3.80;99.90;;;;;;10372133;28;84506;-55
2022/04/03 22:42:34;;;;;;;;;;;3.80;99.90;;;;;;10372205;28;84925;-51
2022/04/03 22:47:36;;;;;;;;;;;3.80;99.90;;;;;;10370903;28;84324;-53
2022/04/03 22:52:37;;;;;;;;;;;3.70;99.90;;;;;;10371140;28;84993;-50
2022/04/03 22:57:38;;;;;;;;;;;3.70;99.90;;;;;;10366429;28;84781;-53
2022/04/03 23:02:39;;;;;;;;;;;3.70;99.90;;;;;;10352271;28;87435;-52
2022/04/03 23:07:40;;;;;;;;;;;3.60;99.90;;;;;;10369600;28;85847;-52
2022/04/03 23:12:41;;;;;;;;;;;3.70;95.00;;;;;;10370056;28;85327;-49
2022/04/03 23:17:41;;;;;;;;;;;3.70;94.60;;;;;;10369287;28;85023;-50
2022/04/03 23:22:42;;;;;;;;;;;3.50;86.20;;;;;;10369080;28;85626;-49
2022/04/03 23:27:43;;;;;;;;;;;3.60;89.90;;;;;;10369763;28;84675;-50
2022/04/03 23:32:44;;;;;;;;;;;3.40;99.80;;;;;;10368299;28;86782;-52
2022/04/03 23:37:45;;;;;;;;;;;3.40;99.90;;;;;;10369205;28;84230;-49
2022/04/03 23:42:46;;;;;;;;;;;3.30;99.90;;;;;;10350576;28;86203;-52
2022/04/03 23:47:47;;;;;;;;;;;3.30;99.90;;;;;;10351139;28;85090;-48
2022/04/03 23:52:47;;;;;;;;;;;3.30;99.90;;;;;;10350435;28;84898;-50
2022/04/03 23:57:48;;;;;;;;;;;3.30;99.90;;;;;;10367837;28;84145;-52
